sensor_id;sensor_type;location;lat;lon;timestamp;pressure;altitude;pressure_sealevel;temperature;humidity
71126;BME280;58785;55.566;38.058;2022-09-30T00:01:39;100146.22;;;10.77;83.83
71126;BME280;58785;55.566;38.058;2022-09-30T00:04:05;100136.00;;;10.73;84.03
71126;BME280;58785;55.566;38.058;2022-09-30T00:06:32;100139.78;;;10.70;84.29
71126;BME280;58785;55.566;38.058;2022-09-30T00:09:00;100143.44;;;10.69;84.29
71126;BME280;58785;55.566;38.058;2022-09-30T00:11:28;100134.66;;;10.59;84.23
71126;BME280;58785;55.566;38.058;2022-09-30T00:13:54;100155.56;;;10.63;84.14
71126;BME280;58785;55.566;38.058;2022-09-30T00:16:21;100158.91;;;10.65;83.94
71126;BME280;58785;55.566;38.058;2022-09-30T00:18:48;100153.88;;;10.62;84.82
71126;BME280;58785;55.566;38.058;2022-09-30T00:21:15;100154.72;;;10.63;84.61
71126;BME280;58785;55.566;38.058;2022-09-30T00:23:41;100155.97;;;10.59;84.25
71126;BME280;58785;55.566;38.058;2022-09-30T00:26:11;100165.66;;;10.60;84.42
71126;BME280;58785;55.566;38.058;2022-09-30T00:28:38;100167.22;;;10.62;84.33
71126;BME280;58785;55.566;38.058;2022-09-30T00:31:06;100165.50;;;10.61;84.25
71126;BME280;58785;55.566;38.058;2022-09-30T00:33:33;100172.78;;;10.69;84.68
71126;BME280;58785;55.566;38.058;2022-09-30T00:35:59;100145.88;;;10.62;84.45
71126;BME280;58785;55.566;38.058;2022-09-30T00:38:25;100168.00;;;10.73;84.48
71126;BME280;58785;55.566;38.058;2022-09-30T00:40:51;100167.28;;;10.71;84.21
71126;BME280;58785;55.566;38.058;2022-09-30T00:43:36;100176.97;;;10.72;84.25
71126;BME280;58785;55.566;38.058;2022-09-30T00:46:14;100173.47;;;10.71;84.47
71126;BME280;58785;55.566;38.058;2022-09-30T00:48:42;100165.63;;;10.70;84.25
71126;BME280;58785;55.566;38.058;2022-09-30T00:51:08;100164.22;;;10.75;83.53
71126;BME280;58785;55.566;38.058;2022-09-30T00:53:39;100178.22;;;10.77;83.85
71126;BME280;58785;55.566;38.058;2022-09-30T00:56:16;100186.53;;;10.74;83.95
71126;BME280;58785;55.566;38.058;2022-09-30T01:01:11;100174.75;;;10.67;84.46
71126;BME280;58785;55.566;38.058;2022-09-30T01:03:54;100173.78;;;10.68;84.35
71126;BME280;58785;55.566;38.058;2022-09-30T01:06:22;100177.00;;;10.62;84.37
71126;BME280;58785;55.566;38.058;2022-09-30T01:08:48;100182.34;;;10.62;84.64
71126;BME280;58785;55.566;38.058;2022-09-30T01:11:14;100178.31;;;10.58;84.33
71126;BME280;58785;55.566;38.058;2022-09-30T01:13:41;100178.44;;;10.56;84.83
71126;BME280;58785;55.566;38.058;2022-09-30T01:22:02;100188.28;;;10.56;83.92
71126;BME280;58785;55.566;38.058;2022-09-30T01:27:13;100177.75;;;10.54;84.73
71126;BME280;58785;55.566;38.058;2022-09-30T01:38:27;100185.06;;;10.52;84.06
71126;BME280;58785;55.566;38.058;2022-09-30T01:46:25;100205.81;;;10.58;83.89
71126;BME280;58785;55.566;38.058;2022-09-30T01:49:41;100203.81;;;10.60;83.74
71126;BME280;58785;55.566;38.058;2022-09-30T01:52:15;100205.38;;;10.63;83.51
71126;BME280;58785;55.566;38.058;2022-09-30T01:54:50;100187.28;;;10.57;83.28
71126;BME280;58785;55.566;38.058;2022-09-30T01:59:59;100191.38;;;10.51;84.13
71126;BME280;58785;55.566;38.058;2022-09-30T02:02:32;100199.09;;;10.54;83.43
71126;BME280;58785;55.566;38.058;2022-09-30T02:05:32;100198.81;;;10.48;84.37
71126;BME280;58785;55.566;38.058;2022-09-30T02:08:07;100195.47;;;10.46;83.49
71126;BME280;58785;55.566;38.058;2022-09-30T02:10:40;100192.94;;;10.44;84.11
71126;BME280;58785;55.566;38.058;2022-09-30T02:13:22;100189.03;;;10.39;83.91
71126;BME280;58785;55.566;38.058;2022-09-30T02:15:53;100200.69;;;10.38;83.84
71126;BME280;58785;55.566;38.058;2022-09-30T02:18:29;100205.84;;;10.39;84.01
71126;BME280;58785;55.566;38.058;2022-09-30T02:21:00;100199.84;;;10.37;83.80
71126;BME280;58785;55.566;38.058;2022-09-30T02:23:31;100201.13;;;10.33;83.98
71126;BME280;58785;55.566;38.058;2022-09-30T02:26:01;100210.06;;;10.32;84.34
71126;BME280;58785;55.566;38.058;2022-09-30T02:28:34;100202.06;;;10.32;84.08
71126;BME280;58785;55.566;38.058;2022-09-30T02:31:03;100188.91;;;10.30;84.00
71126;BME280;58785;55.566;38.058;2022-09-30T02:33:59;100194.53;;;10.27;83.57
71126;BME280;58785;55.566;38.058;2022-09-30T02:36:38;100195.94;;;10.22;83.79
71126;BME280;58785;55.566;38.058;2022-09-30T02:39:10;100189.88;;;10.10;83.65
71126;BME280;58785;55.566;38.058;2022-09-30T02:41:45;100208.38;;;10.12;84.20
71126;BME280;58785;55.566;38.058;2022-09-30T02:44:14;100197.19;;;10.08;83.60
71126;BME280;58785;55.566;38.058;2022-09-30T02:46:54;100184.72;;;9.99;83.80
71126;BME280;58785;55.566;38.058;2022-09-30T02:49:38;100199.16;;;9.96;83.91
71126;BME280;58785;55.566;38.058;2022-09-30T02:55:03;100182.50;;;9.85;84.29
71126;BME280;58785;55.566;38.058;2022-09-30T02:57:57;100196.66;;;9.85;84.55
71126;BME280;58785;55.566;38.058;2022-09-30T03:00:21;100185.84;;;9.77;84.24
71126;BME280;58785;55.566;38.058;2022-09-30T03:02:49;100201.53;;;9.80;84.53
71126;BME280;58785;55.566;38.058;2022-09-30T03:05:16;100191.88;;;9.69;83.93
71126;BME280;58785;55.566;38.058;2022-09-30T03:07:42;100207.84;;;9.79;84.11
71126;BME280;58785;55.566;38.058;2022-09-30T03:10:15;100212.91;;;9.82;84.34
71126;BME280;58785;55.566;38.058;2022-09-30T03:12:58;100213.03;;;9.80;83.99
71126;BME280;58785;55.566;38.058;2022-09-30T03:26:53;100203.09;;;9.73;84.12
71126;BME280;58785;55.566;38.058;2022-09-30T03:40:13;100201.81;;;9.67;84.07
71126;BME280;58785;55.566;38.058;2022-09-30T03:42:55;100209.13;;;9.65;84.71
71126;BME280;58785;55.566;38.058;2022-09-30T03:48:17;100217.09;;;9.65;84.54
71126;BME280;58785;55.566;38.058;2022-09-30T03:50:44;100225.09;;;9.65;84.13
71126;BME280;58785;55.566;38.058;2022-09-30T03:53:11;100216.97;;;9.67;84.28
71126;BME280;58785;55.566;38.058;2022-09-30T03:55:49;100221.16;;;9.69;84.21
71126;BME280;58785;55.566;38.058;2022-09-30T03:58:16;100229.84;;;9.71;84.08
71126;BME280;58785;55.566;38.058;2022-09-30T04:00:48;100232.78;;;9.68;84.42
71126;BME280;58785;55.566;38.058;2022-09-30T04:03:15;100227.31;;;9.70;84.17
71126;BME280;58785;55.566;38.058;2022-09-30T04:05:42;100227.47;;;9.68;84.02
71126;BME280;58785;55.566;38.058;2022-09-30T04:08:08;100236.31;;;9.78;84.09
71126;BME280;58785;55.566;38.058;2022-09-30T04:10:34;100229.00;;;9.80;84.07
71126;BME280;58785;55.566;38.058;2022-09-30T04:13:00;100226.34;;;9.80;83.71
71126;BME280;58785;55.566;38.058;2022-09-30T04:15:25;100224.66;;;9.79;84.21
71126;BME280;58785;55.566;38.058;2022-09-30T04:17:52;100234.22;;;9.82;83.99
71126;BME280;58785;55.566;38.058;2022-09-30T04:20:18;100226.34;;;9.80;84.27
71126;BME280;58785;55.566;38.058;2022-09-30T04:22:43;100231.13;;;9.87;84.20
71126;BME280;58785;55.566;38.058;2022-09-30T04:25:09;100217.25;;;9.83;84.16
71126;BME280;58785;55.566;38.058;2022-09-30T04:27:35;100227.09;;;9.92;84.30
71126;BME280;58785;55.566;38.058;2022-09-30T04:30:01;100215.44;;;9.93;84.20
71126;BME280;58785;55.566;38.058;2022-09-30T04:32:29;100204.06;;;9.91;84.11
71126;BME280;58785;55.566;38.058;2022-09-30T04:34:54;100210.38;;;10.00;84.62
71126;BME280;58785;55.566;38.058;2022-09-30T04:37:20;100211.78;;;10.04;84.18
71126;BME280;58785;55.566;38.058;2022-09-30T04:39:45;100195.06;;;10.02;83.70
71126;BME280;58785;55.566;38.058;2022-09-30T04:42:11;100205.19;;;10.08;84.41
71126;BME280;58785;55.566;38.058;2022-09-30T04:44:37;100196.88;;;10.11;84.18
71126;BME280;58785;55.566;38.058;2022-09-30T04:47:02;100197.47;;;10.15;84.11
71126;BME280;58785;55.566;38.058;2022-09-30T04:49:28;100208.38;;;10.21;84.26
71126;BME280;58785;55.566;38.058;2022-09-30T04:51:54;100206.84;;;10.19;83.92
71126;BME280;58785;55.566;38.058;2022-09-30T04:54:19;100212.88;;;10.21;83.72
71126;BME280;58785;55.566;38.058;2022-09-30T04:56:45;100222.56;;;10.22;84.08
71126;BME280;58785;55.566;38.058;2022-09-30T04:59:11;100212.19;;;10.19;84.50
71126;BME280;58785;55.566;38.058;2022-09-30T05:01:36;100216.84;;;10.26;83.38
71126;BME280;58785;55.566;38.058;2022-09-30T05:04:03;100222.44;;;10.33;83.43
71126;BME280;58785;55.566;38.058;2022-09-30T05:06:29;100227.63;;;10.34;83.42
71126;BME280;58785;55.566;38.058;2022-09-30T05:08:55;100237.69;;;10.41;83.40
71126;BME280;58785;55.566;38.058;2022-09-30T05:11:21;100224.09;;;10.44;83.82
71126;BME280;58785;55.566;38.058;2022-09-30T05:13:47;100230.09;;;10.55;83.79
71126;BME280;58785;55.566;38.058;2022-09-30T05:16:14;100234.72;;;10.63;83.64
71126;BME280;58785;55.566;38.058;2022-09-30T05:18:40;100226.97;;;10.70;83.39
71126;BME280;58785;55.566;38.058;2022-09-30T05:21:11;100217.69;;;10.74;83.30
71126;BME280;58785;55.566;38.058;2022-09-30T05:23:37;100225.78;;;10.82;83.45
71126;BME280;58785;55.566;38.058;2022-09-30T05:26:02;100233.91;;;10.90;82.57
71126;BME280;58785;55.566;38.058;2022-09-30T05:28:29;100237.25;;;10.92;83.19
71126;BME280;58785;55.566;38.058;2022-09-30T05:30:57;100241.47;;;10.94;82.31
71126;BME280;58785;55.566;38.058;2022-09-30T05:33:24;100251.00;;;10.97;83.16
71126;BME280;58785;55.566;38.058;2022-09-30T05:35:50;100243.84;;;10.98;83.10
71126;BME280;58785;55.566;38.058;2022-09-30T05:38:16;100242.47;;;10.93;83.21
71126;BME280;58785;55.566;38.058;2022-09-30T05:40:41;100244.16;;;10.94;83.35
71126;BME280;58785;55.566;38.058;2022-09-30T05:43:08;100247.50;;;10.97;82.99
71126;BME280;58785;55.566;38.058;2022-09-30T05:45:34;100254.34;;;11.09;82.72
71126;BME280;58785;55.566;38.058;2022-09-30T05:48:00;100247.00;;;11.11;83.06
71126;BME280;58785;55.566;38.058;2022-09-30T05:50:26;100250.75;;;11.28;82.79
71126;BME280;58785;55.566;38.058;2022-09-30T05:52:52;100240.31;;;11.34;82.38
71126;BME280;58785;55.566;38.058;2022-09-30T05:55:19;100245.59;;;11.44;82.73
71126;BME280;58785;55.566;38.058;2022-09-30T05:57:49;100234.59;;;11.47;82.84
71126;BME280;58785;55.566;38.058;2022-09-30T06:00:15;100233.47;;;11.49;81.95
71126;BME280;58785;55.566;38.058;2022-09-30T06:02:41;100235.38;;;11.57;81.96
71126;BME280;58785;55.566;38.058;2022-09-30T06:05:08;100222.03;;;11.57;82.49
71126;BME280;58785;55.566;38.058;2022-09-30T06:07:35;100233.81;;;11.64;82.21
71126;BME280;58785;55.566;38.058;2022-09-30T06:10:06;100235.41;;;11.75;81.77
71126;BME280;58785;55.566;38.058;2022-09-30T06:12:33;100219.19;;;11.86;81.26
71126;BME280;58785;55.566;38.058;2022-09-30T06:15:01;100216.63;;;12.02;81.73
71126;BME280;58785;55.566;38.058;2022-09-30T06:17:30;100221.13;;;12.20;81.46
71126;BME280;58785;55.566;38.058;2022-09-30T06:19:56;100220.69;;;12.24;80.73
71126;BME280;58785;55.566;38.058;2022-09-30T06:22:21;100213.41;;;12.34;80.94
71126;BME280;58785;55.566;38.058;2022-09-30T06:24:47;100220.50;;;12.52;80.43
71126;BME280;58785;55.566;38.058;2022-09-30T06:27:13;100222.63;;;12.66;80.43
71126;BME280;58785;55.566;38.058;2022-09-30T06:29:38;100215.84;;;12.80;79.95
71126;BME280;58785;55.566;38.058;2022-09-30T06:32:05;100220.28;;;12.97;79.82
71126;BME280;58785;55.566;38.058;2022-09-30T06:34:31;100224.00;;;13.04;79.37
71126;BME280;58785;55.566;38.058;2022-09-30T06:36:56;100217.81;;;13.12;79.21
71126;BME280;58785;55.566;38.058;2022-09-30T06:39:22;100222.53;;;13.18;79.03
71126;BME280;58785;55.566;38.058;2022-09-30T06:41:47;100222.72;;;13.16;79.03
71126;BME280;58785;55.566;38.058;2022-09-30T06:44:13;100217.53;;;13.15;79.08
71126;BME280;58785;55.566;38.058;2022-09-30T06:46:39;100218.03;;;13.18;79.15
71126;BME280;58785;55.566;38.058;2022-09-30T06:49:04;100224.63;;;13.24;79.02
71126;BME280;58785;55.566;38.058;2022-09-30T06:51:32;100214.25;;;13.29;78.93
71126;BME280;58785;55.566;38.058;2022-09-30T06:53:58;100215.44;;;13.35;78.81
71126;BME280;58785;55.566;38.058;2022-09-30T06:56:24;100213.94;;;13.40;78.68
71126;BME280;58785;55.566;38.058;2022-09-30T06:58:50;100216.47;;;13.50;78.46
71126;BME280;58785;55.566;38.058;2022-09-30T07:01:16;100226.06;;;13.69;78.19
71126;BME280;58785;55.566;38.058;2022-09-30T07:03:43;100213.19;;;13.89;77.40
71126;BME280;58785;55.566;38.058;2022-09-30T07:06:10;100221.59;;;14.10;77.36
71126;BME280;58785;55.566;38.058;2022-09-30T07:08:37;100223.25;;;14.19;76.90
71126;BME280;58785;55.566;38.058;2022-09-30T07:11:09;100222.59;;;14.25;76.68
71126;BME280;58785;55.566;38.058;2022-09-30T07:13:40;100207.34;;;14.34;76.81
71126;BME280;58785;55.566;38.058;2022-09-30T07:16:11;100209.34;;;14.48;76.48
71126;BME280;58785;55.566;38.058;2022-09-30T07:18:37;100219.75;;;14.51;75.82
71126;BME280;58785;55.566;38.058;2022-09-30T07:21:04;100217.03;;;14.59;75.75
71126;BME280;58785;55.566;38.058;2022-09-30T07:23:30;100225.91;;;14.68;75.83
71126;BME280;58785;55.566;38.058;2022-09-30T07:25:58;100221.03;;;14.72;75.87
71126;BME280;58785;55.566;38.058;2022-09-30T07:28:27;100223.06;;;14.78;75.71
71126;BME280;58785;55.566;38.058;2022-09-30T07:30:57;100224.22;;;14.83;75.36
71126;BME280;58785;55.566;38.058;2022-09-30T07:33:27;100226.53;;;14.94;75.10
71126;BME280;58785;55.566;38.058;2022-09-30T07:35:56;100218.78;;;15.00;74.90
71126;BME280;58785;55.566;38.058;2022-09-30T07:38:25;100214.03;;;15.10;74.81
71126;BME280;58785;55.566;38.058;2022-09-30T07:43:18;100212.50;;;15.23;74.52
71126;BME280;58785;55.566;38.058;2022-09-30T07:45:44;100216.16;;;15.22;74.81
71126;BME280;58785;55.566;38.058;2022-09-30T07:48:09;100226.22;;;15.29;74.80
71126;BME280;58785;55.566;38.058;2022-09-30T07:50:55;100229.91;;;15.28;74.34
71126;BME280;58785;55.566;38.058;2022-09-30T07:53:21;100216.53;;;15.19;74.51
71126;BME280;58785;55.566;38.058;2022-09-30T07:55:47;100239.69;;;15.20;74.79
71126;BME280;58785;55.566;38.058;2022-09-30T07:58:12;100234.66;;;15.17;75.04
71126;BME280;58785;55.566;38.058;2022-09-30T08:00:38;100237.81;;;15.21;74.75
71126;BME280;58785;55.566;38.058;2022-09-30T08:03:03;100236.50;;;15.25;74.73
71126;BME280;58785;55.566;38.058;2022-09-30T08:05:29;100237.28;;;15.34;74.64
71126;BME280;58785;55.566;38.058;2022-09-30T08:07:55;100234.72;;;15.40;74.46
71126;BME280;58785;55.566;38.058;2022-09-30T08:10:20;100230.84;;;15.43;74.55
71126;BME280;58785;55.566;38.058;2022-09-30T08:12:46;100225.13;;;15.46;74.16
71126;BME280;58785;55.566;38.058;2022-09-30T08:15:11;100229.31;;;15.48;74.21
71126;BME280;58785;55.566;38.058;2022-09-30T08:17:37;100223.38;;;15.53;74.23
71126;BME280;58785;55.566;38.058;2022-09-30T08:20:03;100229.09;;;15.58;74.32
71126;BME280;58785;55.566;38.058;2022-09-30T08:22:29;100224.91;;;15.64;73.95
71126;BME280;58785;55.566;38.058;2022-09-30T08:24:54;100224.00;;;15.71;73.48
71126;BME280;58785;55.566;38.058;2022-09-30T08:27:20;100220.38;;;15.87;73.41
71126;BME280;58785;55.566;38.058;2022-09-30T08:29:46;100223.66;;;15.97;73.19
71126;BME280;58785;55.566;38.058;2022-09-30T08:32:11;100229.81;;;16.06;73.02
71126;BME280;58785;55.566;38.058;2022-09-30T08:34:37;100225.38;;;16.13;72.69
71126;BME280;58785;55.566;38.058;2022-09-30T08:37:03;100227.28;;;16.27;72.44
71126;BME280;58785;55.566;38.058;2022-09-30T08:39:28;100234.63;;;16.33;72.26
71126;BME280;58785;55.566;38.058;2022-09-30T08:42:05;100232.41;;;16.37;72.29
71126;BME280;58785;55.566;38.058;2022-09-30T08:44:43;100230.00;;;16.42;71.95
71126;BME280;58785;55.566;38.058;2022-09-30T08:50:13;100229.78;;;16.66;71.63
71126;BME280;58785;55.566;38.058;2022-09-30T08:52:50;100237.69;;;16.68;71.65
71126;BME280;58785;55.566;38.058;2022-09-30T08:55:30;100230.78;;;16.65;71.67
71126;BME280;58785;55.566;38.058;2022-09-30T08:57:57;100223.75;;;16.64;71.91
71126;BME280;58785;55.566;38.058;2022-09-30T09:00:23;100216.56;;;16.57;71.96
71126;BME280;58785;55.566;38.058;2022-09-30T09:05:25;100212.13;;;16.64;72.03
71126;BME280;58785;55.566;38.058;2022-09-30T09:08:00;100223.50;;;16.74;72.11
71126;BME280;58785;55.566;38.058;2022-09-30T09:23:38;100210.69;;;16.53;72.50
71126;BME280;58785;55.566;38.058;2022-09-30T09:26:03;100213.88;;;16.57;72.64
71126;BME280;58785;55.566;38.058;2022-09-30T09:28:34;100195.69;;;16.59;72.73
71126;BME280;58785;55.566;38.058;2022-09-30T09:31:02;100197.53;;;16.58;72.69
71126;BME280;58785;55.566;38.058;2022-09-30T09:33:31;100194.19;;;16.56;72.50
71126;BME280;58785;55.566;38.058;2022-09-30T09:36:28;100197.34;;;16.60;72.35
71126;BME280;58785;55.566;38.058;2022-09-30T09:41:53;100198.69;;;16.64;72.41
71126;BME280;58785;55.566;38.058;2022-09-30T09:44:32;100214.41;;;16.75;72.09
71126;BME280;58785;55.566;38.058;2022-09-30T09:47:04;100204.19;;;16.85;72.18
71126;BME280;58785;55.566;38.058;2022-09-30T09:49:46;100200.38;;;16.94;71.83
71126;BME280;58785;55.566;38.058;2022-09-30T09:54:52;100198.94;;;17.28;71.29
71126;BME280;58785;55.566;38.058;2022-09-30T09:57:23;100196.38;;;17.41;71.09
71126;BME280;58785;55.566;38.058;2022-09-30T10:05:37;100195.75;;;17.39;71.16
71126;BME280;58785;55.566;38.058;2022-09-30T10:08:20;100194.34;;;17.43;71.12
71126;BME280;58785;55.566;38.058;2022-09-30T10:10:50;100204.66;;;17.55;70.84
71126;BME280;58785;55.566;38.058;2022-09-30T10:13:21;100187.63;;;17.54;70.95
71126;BME280;58785;55.566;38.058;2022-09-30T10:15:50;100211.31;;;17.59;70.77
71126;BME280;58785;55.566;38.058;2022-09-30T10:21:06;100211.13;;;17.75;70.33
71126;BME280;58785;55.566;38.058;2022-09-30T10:23:43;100212.53;;;17.92;70.28
71126;BME280;58785;55.566;38.058;2022-09-30T10:36:20;100203.41;;;18.15;69.86
71126;BME280;58785;55.566;38.058;2022-09-30T10:39:00;100203.97;;;18.10;69.71
71126;BME280;58785;55.566;38.058;2022-09-30T10:41:29;100203.66;;;17.98;70.00
71126;BME280;58785;55.566;38.058;2022-09-30T10:44:01;100207.78;;;17.94;70.28
71126;BME280;58785;55.566;38.058;2022-09-30T10:46:35;100210.81;;;18.06;70.51
71126;BME280;58785;55.566;38.058;2022-09-30T10:49:13;100209.69;;;18.22;69.72
71126;BME280;58785;55.566;38.058;2022-09-30T10:51:45;100202.34;;;18.37;69.39
71126;BME280;58785;55.566;38.058;2022-09-30T10:54:35;100213.09;;;18.58;68.61
71126;BME280;58785;55.566;38.058;2022-09-30T10:57:02;100193.03;;;18.67;68.70
71126;BME280;58785;55.566;38.058;2022-09-30T11:01:58;100198.56;;;18.87;68.32
71126;BME280;58785;55.566;38.058;2022-09-30T11:04:32;100197.47;;;18.82;68.44
71126;BME280;58785;55.566;38.058;2022-09-30T11:07:09;100198.50;;;18.81;68.47
71126;BME280;58785;55.566;38.058;2022-09-30T11:09:57;100196.66;;;18.81;68.27
71126;BME280;58785;55.566;38.058;2022-09-30T11:12:33;100195.84;;;18.87;68.54
71126;BME280;58785;55.566;38.058;2022-09-30T11:15:22;100191.41;;;19.08;68.08
71126;BME280;58785;55.566;38.058;2022-09-30T11:18:01;100176.06;;;19.21;67.96
71126;BME280;58785;55.566;38.058;2022-09-30T11:20:37;100180.66;;;19.28;67.44
71126;BME280;58785;55.566;38.058;2022-09-30T11:25:53;100172.78;;;19.39;67.21
71126;BME280;58785;55.566;38.058;2022-09-30T11:39:41;100185.47;;;18.84;67.58
71126;BME280;58785;55.566;38.058;2022-09-30T11:47:43;100185.06;;;18.59;68.16
71126;BME280;58785;55.566;38.058;2022-09-30T11:50:43;100203.13;;;18.59;68.32
71126;BME280;58785;55.566;38.058;2022-09-30T11:53:24;100207.09;;;18.63;68.06
71126;BME280;58785;55.566;38.058;2022-09-30T11:56:21;100199.97;;;18.83;67.42
71126;BME280;58785;55.566;38.058;2022-09-30T11:58:53;100205.00;;;18.86;67.55
71126;BME280;58785;55.566;38.058;2022-09-30T12:01:31;100209.13;;;18.82;68.00
71126;BME280;58785;55.566;38.058;2022-09-30T12:04:09;100210.28;;;18.66;67.95
71126;BME280;58785;55.566;38.058;2022-09-30T12:07:04;100211.84;;;18.61;68.03
71126;BME280;58785;55.566;38.058;2022-09-30T12:09:40;100216.03;;;18.63;68.18
71126;BME280;58785;55.566;38.058;2022-09-30T12:12:10;100222.22;;;18.57;68.66
71126;BME280;58785;55.566;38.058;2022-09-30T12:14:43;100216.28;;;18.41;68.66
71126;BME280;58785;55.566;38.058;2022-09-30T12:19:47;100216.59;;;18.24;68.70
71126;BME280;58785;55.566;38.058;2022-09-30T12:22:29;100217.75;;;18.15;68.70
71126;BME280;58785;55.566;38.058;2022-09-30T12:24:57;100229.09;;;18.10;68.86
71126;BME280;58785;55.566;38.058;2022-09-30T12:27:41;100236.50;;;18.02;68.76
71126;BME280;58785;55.566;38.058;2022-09-30T12:30:15;100235.03;;;17.99;69.16
71126;BME280;58785;55.566;38.058;2022-09-30T12:41:41;100227.19;;;18.04;69.21
71126;BME280;58785;55.566;38.058;2022-09-30T12:49:48;100216.63;;;18.31;69.10
71126;BME280;58785;55.566;38.058;2022-09-30T12:52:18;100217.25;;;18.33;68.99
71126;BME280;58785;55.566;38.058;2022-09-30T12:54:55;100228.25;;;18.31;69.03
71126;BME280;58785;55.566;38.058;2022-09-30T12:57:26;100225.63;;;18.17;69.30
71126;BME280;58785;55.566;38.058;2022-09-30T13:00:04;100223.06;;;18.08;69.51
71126;BME280;58785;55.566;38.058;2022-09-30T13:02:34;100224.09;;;18.07;69.73
71126;BME280;58785;55.566;38.058;2022-09-30T13:10:46;100240.81;;;17.96;70.00
71126;BME280;58785;55.566;38.058;2022-09-30T13:13:26;100234.94;;;17.93;70.25
71126;BME280;58785;55.566;38.058;2022-09-30T13:16:00;100231.41;;;17.92;70.49
71126;BME280;58785;55.566;38.058;2022-09-30T13:31:29;100242.38;;;17.69;71.60
71126;BME280;58785;55.566;38.058;2022-09-30T13:47:54;100258.88;;;17.45;72.22
71126;BME280;58785;55.566;38.058;2022-09-30T13:50:35;100253.38;;;17.38;72.17
71126;BME280;58785;55.566;38.058;2022-09-30T13:53:05;100254.41;;;17.37;72.01
71126;BME280;58785;55.566;38.058;2022-09-30T13:55:44;100254.41;;;17.22;72.28
71126;BME280;58785;55.566;38.058;2022-09-30T14:22:08;100288.97;;;16.75;73.38
71126;BME280;58785;55.566;38.058;2022-09-30T14:24:37;100285.97;;;16.70;73.51
71126;BME280;58785;55.566;38.058;2022-09-30T14:30:17;100286.19;;;16.60;73.81
71126;BME280;58785;55.566;38.058;2022-09-30T14:35:20;100297.03;;;16.52;74.18
71126;BME280;58785;55.566;38.058;2022-09-30T14:37:52;100288.69;;;16.47;74.35
71126;BME280;58785;55.566;38.058;2022-09-30T14:40:26;100290.59;;;16.38;74.43
71126;BME280;58785;55.566;38.058;2022-09-30T14:42:53;100295.97;;;16.38;74.52
71126;BME280;58785;55.566;38.058;2022-09-30T14:45:27;100297.19;;;16.35;74.86
71126;BME280;58785;55.566;38.058;2022-09-30T14:47:57;100295.66;;;16.33;74.74
71126;BME280;58785;55.566;38.058;2022-09-30T14:50:27;100285.84;;;16.25;74.56
71126;BME280;58785;55.566;38.058;2022-09-30T14:52:56;100306.34;;;16.26;74.96
71126;BME280;58785;55.566;38.058;2022-09-30T14:55:33;100306.69;;;16.23;74.98
71126;BME280;58785;55.566;38.058;2022-09-30T14:58:25;100300.16;;;16.18;75.23
71126;BME280;58785;55.566;38.058;2022-09-30T15:01:02;100295.50;;;16.12;75.24
71126;BME280;58785;55.566;38.058;2022-09-30T15:03:29;100303.75;;;16.10;75.15
71126;BME280;58785;55.566;38.058;2022-09-30T15:05:57;100311.63;;;16.12;75.51
71126;BME280;58785;55.566;38.058;2022-09-30T15:08:23;100305.59;;;16.09;75.61
71126;BME280;58785;55.566;38.058;2022-09-30T15:10:51;100309.31;;;16.08;75.74
71126;BME280;58785;55.566;38.058;2022-09-30T15:13:20;100307.31;;;16.02;75.36
71126;BME280;58785;55.566;38.058;2022-09-30T15:15:47;100308.00;;;16.04;75.99
71126;BME280;58785;55.566;38.058;2022-09-30T15:18:32;100310.00;;;16.02;76.12
71126;BME280;58785;55.566;38.058;2022-09-30T15:21:09;100309.91;;;15.96;76.18
71126;BME280;58785;55.566;38.058;2022-09-30T15:23:38;100305.78;;;15.85;76.16
71126;BME280;58785;55.566;38.058;2022-09-30T15:26:06;100318.66;;;15.90;76.41
71126;BME280;58785;55.566;38.058;2022-09-30T15:28:35;100316.34;;;15.87;76.81
71126;BME280;58785;55.566;38.058;2022-09-30T15:31:02;100315.84;;;15.83;76.78
71126;BME280;58785;55.566;38.058;2022-09-30T15:33:29;100302.47;;;15.75;76.68
71126;BME280;58785;55.566;38.058;2022-09-30T15:36:05;100301.44;;;15.76;76.76
71126;BME280;58785;55.566;38.058;2022-09-30T15:38:33;100317.41;;;15.77;77.19
71126;BME280;58785;55.566;38.058;2022-09-30T15:41:04;100314.53;;;15.79;77.13
71126;BME280;58785;55.566;38.058;2022-09-30T15:43:40;100315.72;;;15.76;76.95
71126;BME280;58785;55.566;38.058;2022-09-30T15:46:29;100325.47;;;15.77;77.09
71126;BME280;58785;55.566;38.058;2022-09-30T15:48:58;100322.97;;;15.76;77.12
71126;BME280;58785;55.566;38.058;2022-09-30T15:51:34;100321.09;;;15.76;77.10
71126;BME280;58785;55.566;38.058;2022-09-30T15:56:40;100325.47;;;15.77;77.19
71126;BME280;58785;55.566;38.058;2022-09-30T15:59:09;100325.47;;;15.77;77.44
71126;BME280;58785;55.566;38.058;2022-09-30T16:09:31;100338.06;;;15.77;77.92
71126;BME280;58785;55.566;38.058;2022-09-30T16:14:48;100333.06;;;15.74;77.84
71126;BME280;58785;55.566;38.058;2022-09-30T16:17:31;100342.97;;;15.73;77.79
71126;BME280;58785;55.566;38.058;2022-09-30T16:20:22;100334.22;;;15.71;77.88
71126;BME280;58785;55.566;38.058;2022-09-30T16:22:54;100324.84;;;15.67;77.99
71126;BME280;58785;55.566;38.058;2022-09-30T16:25:27;100337.09;;;15.70;78.35
71126;BME280;58785;55.566;38.058;2022-09-30T16:30:24;100347.00;;;15.69;78.14
71126;BME280;58785;55.566;38.058;2022-09-30T16:32:53;100351.38;;;15.70;78.40
71126;BME280;58785;55.566;38.058;2022-09-30T16:35:22;100347.38;;;15.66;78.29
71126;BME280;58785;55.566;38.058;2022-09-30T16:37:49;100349.69;;;15.69;78.43